CheckWX is a tool to help pilots better visualize weather data.  It is not intended as a substitute for an official pre-flight weather briefing.

16:58:37 UTC

KBRL METAR
Southeast Iowa Regional Airport
Burlington, Iowa, USA
Current

1 hour ago

KBRL 251553Z AUTO 28010KT 7SM OVC011 00/M03 A2999 RMK AO2 SLP161 T00001033 $
Observed
Jan-25 @ 15:53 UTC
Wind
  • 280° at 10 KTS
Visibility
7 SM
Flight Rules
MVFR
Cloud Levels
  • Overcast at 1,100' AGL
Temperature
C / 32°F
Dewpoint
-3°C / 27°F
Humidity
80%
Altimeter
29.99" Hg
Pressure
1015.62 hPa
Previous

2 hours ago

KBRL 251453Z AUTO 28012G18KT 7SM OVC010 M01/M03 A2999 RMK AO2 SLP161 T10061033 51015 $
Observed
Jan-25 @ 14:53 UTC
Wind
  • 280° at 12 KTS
  • Gusting to 18 KTS
Visibility
7 SM
Flight Rules
MVFR
Cloud Levels
  • Overcast at 1,000' AGL
Temperature
-1°C / 30°F
Dewpoint
-3°C / 27°F
Humidity
86%
Altimeter
29.99" Hg
Pressure
1015.62 hPa
Previous

3 hours ago

KBRL 251353Z AUTO 28009G18KT 7SM OVC010 M01/M03 A2998 RMK AO2 SLP159 T10061033 $
Observed
Jan-25 @ 13:53 UTC
Wind
  • 280° at 9 KTS
  • Gusting to 18 KTS
Visibility
7 SM
Flight Rules
MVFR
Cloud Levels
  • Overcast at 1,000' AGL
Temperature
-1°C / 30°F
Dewpoint
-3°C / 27°F
Humidity
86%
Altimeter
29.98" Hg
Pressure
1015.22 hPa